createdAt,value
2023-02-21T00:02:01.656Z,11.24
2023-02-21T00:04:47.229Z,11.23
2023-02-21T00:07:32.656Z,11.23
2023-02-21T00:10:18.221Z,11.22
2023-02-21T00:13:03.741Z,11.24
2023-02-21T00:15:49.240Z,11.26
2023-02-21T00:18:34.822Z,11.23
2023-02-21T00:21:20.273Z,11.25
2023-02-21T00:24:05.931Z,11.25
2023-02-21T00:26:51.551Z,11.27
2023-02-21T00:29:36.941Z,11.25
2023-02-21T00:32:22.629Z,11.25
2023-02-21T00:35:08.053Z,11.25
2023-02-21T00:37:53.610Z,11.24
2023-02-21T00:40:39.072Z,11.25
2023-02-21T00:43:24.442Z,11.24
2023-02-21T00:46:10.028Z,11.23
2023-02-21T00:48:55.714Z,11.23
2023-02-21T00:51:41.391Z,11.24
2023-02-21T00:54:27.043Z,11.25
2023-02-21T00:57:12.713Z,11.23
2023-02-21T00:59:58.373Z,11.24
2023-02-21T01:02:43.920Z,11.23
2023-02-21T01:05:29.508Z,11.24
2023-02-21T01:08:15.088Z,11.22
2023-02-21T01:11:00.569Z,11.22
2023-02-21T01:13:46.157Z,11.23
2023-02-21T01:16:31.501Z,11.22
2023-02-21T01:19:17.117Z,11.22
2023-02-21T01:22:03.185Z,11.22
2023-02-21T01:24:48.527Z,11.22
2023-02-21T01:27:34.156Z,11.23
2023-02-21T01:30:19.176Z,11.23
2023-02-21T01:33:04.898Z,11.22
2023-02-21T01:35:50.318Z,11.21
2023-02-21T01:38:35.679Z,11.19
2023-02-21T01:41:21.347Z,11.20
2023-02-21T01:44:24.449Z,11.19
2023-02-21T01:47:09.965Z,11.19
2023-02-21T01:49:58.671Z,11.18
2023-02-21T01:52:44.595Z,11.17
2023-02-21T01:55:31.290Z,11.17
2023-02-21T01:58:17.073Z,11.16
2023-02-21T02:01:09.785Z,11.15
2023-02-21T02:03:57.292Z,11.14
2023-02-21T02:06:42.680Z,11.13
2023-02-21T02:09:38.968Z,11.14
2023-02-21T02:12:23.596Z,11.13
2023-02-21T02:15:19.190Z,11.13
2023-02-21T02:18:15.282Z,11.13
2023-02-21T02:21:21.996Z,11.13
2023-02-21T02:24:07.120Z,11.12
2023-02-21T02:26:58.141Z,11.13
2023-02-21T02:29:48.654Z,11.13
2023-02-21T02:32:37.286Z,11.13
2023-02-21T02:35:17.798Z,11.13
2023-02-21T02:38:14.191Z,11.13
2023-02-21T02:41:01.153Z,11.11
2023-02-21T02:43:35.682Z,11.13
2023-02-21T02:46:10.701Z,11.13
2023-02-21T02:48:43.466Z,11.13
2023-02-21T02:51:13.144Z,11.13
2023-02-21T02:53:40.516Z,11.12
2023-02-21T02:56:11.071Z,11.11
2023-02-21T02:58:46.800Z,11.09
2023-02-21T03:01:35.329Z,11.10
2023-02-21T03:04:35.942Z,11.09
2023-02-21T03:07:08.741Z,11.10
2023-02-21T03:09:45.240Z,11.09
2023-02-21T03:12:55.775Z,11.09
2023-02-21T03:15:26.194Z,11.07
2023-02-21T03:18:24.554Z,11.07
2023-02-21T03:20:56.184Z,11.08
2023-02-21T03:23:25.692Z,11.07
2023-02-21T03:25:54.625Z,11.06
2023-02-21T03:28:21.749Z,11.06
2023-02-21T03:30:53.153Z,11.05
2023-02-21T03:33:20.318Z,11.03
2023-02-21T03:35:47.203Z,11.04
2023-02-21T03:38:14.240Z,11.04
2023-02-21T03:40:41.046Z,11.04
2023-02-21T03:43:08.396Z,11.04
2023-02-21T03:45:36.263Z,11.02
2023-02-21T03:48:04.152Z,11.01
2023-02-21T03:50:30.964Z,10.99
2023-02-21T03:57:40.374Z,10.99
2023-02-21T04:01:06.962Z,10.98
2023-02-21T04:07:47.026Z,10.93
2023-02-21T04:10:14.280Z,10.89
2023-02-21T04:12:41.016Z,10.88
2023-02-21T04:15:08.343Z,10.87
2023-02-21T04:17:35.013Z,10.85
2023-02-21T04:20:01.704Z,10.87
2023-02-21T04:22:28.481Z,10.86
2023-02-21T04:24:55.127Z,10.85
2023-02-21T04:27:25.104Z,10.79
2023-02-21T04:29:51.944Z,10.70
2023-02-21T04:32:18.681Z,10.64
2023-02-21T04:34:45.536Z,10.58
2023-02-21T04:37:12.419Z,10.53
2023-02-21T04:39:39.127Z,10.49
2023-02-21T04:42:05.807Z,10.49
2023-02-21T04:44:32.859Z,10.49
2023-02-21T04:46:59.477Z,10.49
2023-02-21T04:49:27.640Z,10.52
2023-02-21T04:51:55.226Z,10.54
2023-02-21T04:54:21.919Z,10.55
2023-02-21T04:56:48.697Z,10.53
2023-02-21T04:59:15.486Z,10.52
2023-02-21T05:01:42.199Z,10.50
2023-02-21T05:04:09.037Z,10.48
2023-02-21T05:06:36.057Z,10.48
2023-02-21T05:09:03.850Z,10.46
2023-02-21T05:11:34.744Z,10.47
2023-02-21T05:14:01.857Z,10.47
2023-02-21T05:16:28.590Z,10.51
2023-02-21T05:18:57.569Z,10.51
2023-02-21T05:21:24.417Z,10.53
2023-02-21T05:23:56.896Z,10.52
2023-02-21T05:26:30.208Z,10.52
2023-02-21T05:28:57.126Z,10.52
2023-02-21T05:31:23.999Z,10.52
2023-02-21T05:33:51.253Z,10.52
2023-02-21T05:37:17.678Z,10.52
2023-02-21T05:43:38.757Z,10.48
2023-02-21T05:46:05.578Z,10.44
2023-02-21T05:48:32.233Z,10.40
2023-02-21T05:50:59.009Z,10.37
2023-02-21T05:53:25.716Z,10.30
2023-02-21T05:55:52.367Z,10.24
2023-02-21T05:58:21.508Z,10.17
2023-02-21T06:00:48.279Z,10.08
2023-02-21T06:03:14.940Z,10.04
2023-02-21T06:05:41.850Z,9.98
2023-02-21T06:08:11.030Z,9.91
2023-02-21T06:10:38.489Z,9.85
2023-02-21T06:13:05.362Z,9.80
2023-02-21T06:15:32.179Z,9.72
2023-02-21T06:17:58.858Z,9.67
2023-02-21T06:20:25.825Z,9.67
2023-02-21T06:22:52.583Z,9.72
2023-02-21T06:25:19.644Z,9.80
2023-02-21T06:27:46.420Z,9.87
2023-02-21T06:30:13.457Z,9.92
2023-02-21T06:32:40.250Z,9.98
2023-02-21T06:35:07.309Z,10.02
2023-02-21T06:37:33.997Z,10.04
2023-02-21T06:40:00.785Z,10.06
2023-02-21T06:42:28.511Z,10.11
2023-02-21T06:44:55.233Z,10.12
2023-02-21T06:47:22.038Z,10.15
2023-02-21T06:49:49.200Z,10.19
2023-02-21T06:52:16.046Z,10.20
2023-02-21T06:54:42.881Z,10.22
2023-02-21T06:57:09.714Z,10.21
2023-02-21T06:59:36.710Z,10.21
2023-02-21T07:02:05.235Z,10.24
2023-02-21T07:04:32.063Z,10.24
2023-02-21T07:06:58.812Z,10.24
2023-02-21T07:09:25.564Z,10.24
2023-02-21T07:11:52.527Z,10.23
2023-02-21T07:14:19.230Z,10.23
2023-02-21T07:16:46.007Z,10.22
2023-02-21T07:21:43.402Z,10.21
2023-02-21T07:24:10.151Z,10.20
2023-02-21T07:26:37.958Z,10.20
2023-02-21T07:29:06.568Z,10.20
2023-02-21T07:31:34.010Z,10.20
2023-02-21T07:34:00.758Z,10.22
2023-02-21T07:36:27.663Z,10.22
2023-02-21T07:38:54.445Z,10.19
2023-02-21T07:41:21.137Z,10.18
2023-02-21T07:43:48.006Z,10.15
2023-02-21T07:46:17.256Z,10.11
2023-02-21T07:48:43.927Z,10.09
2023-02-21T07:51:10.945Z,10.07
2023-02-21T07:53:38.041Z,10.05
2023-02-21T07:56:05.297Z,10.03
2023-02-21T07:58:37.589Z,10.03
2023-02-21T08:01:06.153Z,10.03
2023-02-21T08:03:33.304Z,10.04
2023-02-21T08:06:00.760Z,10.07
2023-02-21T08:08:27.478Z,10.09
2023-02-21T08:10:54.260Z,10.11
2023-02-21T08:13:21.000Z,10.15
2023-02-21T08:15:47.852Z,10.17
2023-02-21T08:18:20.947Z,10.22
2023-02-21T08:20:47.857Z,10.29
2023-02-21T08:23:14.477Z,10.33
2023-02-21T08:25:41.321Z,10.37
2023-02-21T08:28:08.067Z,10.42
2023-02-21T08:30:34.800Z,10.48
2023-02-21T08:33:03.079Z,10.57
2023-02-21T08:35:29.899Z,10.62
2023-02-21T08:37:56.909Z,10.65
2023-02-21T08:40:24.790Z,10.63
2023-02-21T08:42:53.666Z,10.57
2023-02-21T08:45:22.275Z,10.55
2023-02-21T08:47:49.903Z,10.54
2023-02-21T08:50:16.708Z,10.55
2023-02-21T08:52:45.570Z,10.56
2023-02-21T08:55:12.635Z,10.59
2023-02-21T08:57:39.497Z,10.59
2023-02-21T09:00:10.610Z,10.58
2023-02-21T09:02:41.727Z,10.58
2023-02-21T09:05:13.914Z,10.58
2023-02-21T09:07:40.645Z,10.64
2023-02-21T09:10:10.013Z,10.70
2023-02-21T09:12:37.810Z,10.77
2023-02-21T09:15:05.161Z,10.81
2023-02-21T09:17:34.215Z,10.91
2023-02-21T09:20:06.686Z,11.05
2023-02-21T09:22:34.392Z,11.09
2023-02-21T09:25:02.231Z,11.19
2023-02-21T09:27:38.181Z,11.25
2023-02-21T09:30:15.444Z,11.35
2023-02-21T09:32:42.428Z,11.52
2023-02-21T09:35:14.033Z,11.54
2023-02-21T09:37:42.651Z,11.61
2023-02-21T09:40:33.972Z,11.74
2023-02-21T09:43:03.479Z,11.88
2023-02-21T09:45:36.575Z,11.83
2023-02-21T09:48:19.249Z,11.98
2023-02-21T09:50:59.607Z,12.14
2023-02-21T09:53:36.600Z,12.22
2023-02-21T09:56:20.661Z,12.16
2023-02-21T09:58:49.741Z,12.19
2023-02-21T10:01:25.620Z,12.48
2023-02-21T10:04:17.351Z,12.72
2023-02-21T10:06:57.926Z,12.71
2023-02-21T10:09:37.153Z,12.89
2023-02-21T10:12:28.846Z,13.13
2023-02-21T10:15:14.506Z,13.37
2023-02-21T10:18:03.677Z,13.54
2023-02-21T10:20:38.618Z,13.73
2023-02-21T10:23:16.526Z,13.94
2023-02-21T10:25:45.230Z,14.10
2023-02-21T10:28:24.376Z,14.22
2023-02-21T10:30:57.825Z,14.40
2023-02-21T10:33:24.820Z,14.41
2023-02-21T10:35:55.328Z,14.34
2023-02-21T10:38:25.943Z,14.31
2023-02-21T10:41:03.023Z,14.09
2023-02-21T10:43:50.708Z,13.96
2023-02-21T10:46:23.623Z,13.98
2023-02-21T10:48:53.174Z,14.01
2023-02-21T10:51:30.626Z,14.16
2023-02-21T10:54:24.632Z,14.23
2023-02-21T10:56:54.233Z,14.35
2023-02-21T10:59:25.251Z,14.54
2023-02-21T11:01:53.515Z,14.79
2023-02-21T11:04:20.189Z,15.07
2023-02-21T11:06:50.054Z,15.20
2023-02-21T11:09:44.890Z,15.15
2023-02-21T11:12:26.003Z,15.20
2023-02-21T11:14:59.057Z,15.21
2023-02-21T11:17:29.327Z,15.13
2023-02-21T11:19:58.352Z,15.09
2023-02-21T11:22:42.935Z,14.99
2023-02-21T11:25:39.608Z,14.85
2023-02-21T11:28:20.794Z,14.90
2023-02-21T11:30:51.210Z,14.88
2023-02-21T11:33:22.712Z,14.93
2023-02-21T11:35:52.285Z,15.01
2023-02-21T11:38:38.512Z,15.17
2023-02-21T11:41:38.528Z,15.23
2023-02-21T11:44:25.758Z,15.27
2023-02-21T11:47:35.294Z,15.39
2023-02-21T11:50:04.236Z,15.49
2023-02-21T11:52:41.023Z,15.47
2023-02-21T11:55:18.915Z,15.51
2023-02-21T11:58:05.962Z,15.62
2023-02-21T12:00:40.061Z,15.83
2023-02-21T12:03:28.041Z,15.69
2023-02-21T12:06:10.083Z,15.50
2023-02-21T12:08:44.548Z,15.13
2023-02-21T12:11:23.456Z,14.95
2023-02-21T12:14:08.435Z,14.84
2023-02-21T12:17:05.815Z,14.76
2023-02-21T12:19:46.771Z,14.76
2023-02-21T12:22:38.149Z,14.61
2023-02-21T12:25:07.700Z,14.65
2023-02-21T12:27:42.801Z,14.63
2023-02-21T12:30:30.857Z,14.59
2023-02-21T12:33:03.254Z,14.51
2023-02-21T12:35:33.995Z,14.45
2023-02-21T12:38:22.801Z,14.52
2023-02-21T12:41:07.720Z,14.68
2023-02-21T12:44:18.818Z,15.02
2023-02-21T12:46:56.600Z,15.27
2023-02-21T12:49:36.154Z,15.53
2023-02-21T12:52:28.760Z,15.99
2023-02-21T12:55:18.840Z,16.34
2023-02-21T12:58:00.594Z,16.32
2023-02-21T13:00:50.192Z,16.36
2023-02-21T13:03:34.402Z,16.50
2023-02-21T13:06:31.715Z,16.71
2023-02-21T13:09:35.849Z,17.18
2023-02-21T13:12:14.767Z,17.37
2023-02-21T13:15:01.954Z,17.90
2023-02-21T13:17:28.888Z,17.86
2023-02-21T13:20:09.996Z,18.18
2023-02-21T13:22:57.128Z,18.91
2023-02-21T13:25:23.736Z,19.33
2023-02-21T13:28:00.390Z,20.00
2023-02-21T13:30:33.055Z,20.23
2023-02-21T13:33:03.995Z,20.88
2023-02-21T13:35:37.712Z,22.30
2023-02-21T13:38:10.778Z,23.68
2023-02-21T13:40:52.822Z,24.06
2023-02-21T13:43:23.743Z,23.66
2023-02-21T13:45:53.054Z,23.08
2023-02-21T13:48:29.086Z,22.33
2023-02-21T13:50:58.483Z,22.35
2023-02-21T13:53:34.414Z,23.51
2023-02-21T13:56:07.100Z,25.16
2023-02-21T13:58:37.874Z,26.16
2023-02-21T14:01:39.376Z,27.04
2023-02-21T14:04:43.401Z,27.67
2023-02-21T14:07:10.148Z,28.04
2023-02-21T14:09:40.808Z,28.46
2023-02-21T14:12:08.059Z,28.79
2023-02-21T14:14:39.686Z,28.84
2023-02-21T14:17:10.726Z,28.84
2023-02-21T14:19:40.986Z,29.03
2023-02-21T14:22:24.828Z,28.96
2023-02-21T14:25:04.001Z,29.28
2023-02-21T14:27:33.568Z,29.61
2023-02-21T14:30:12.937Z,29.94
2023-02-21T14:32:50.040Z,29.73
2023-02-21T14:35:16.920Z,29.83
2023-02-21T14:37:55.263Z,30.01
2023-02-21T14:40:34.112Z,29.55
2023-02-21T14:43:19.606Z,28.38
2023-02-21T14:46:16.704Z,26.23
2023-02-21T14:49:27.872Z,23.80
2023-02-21T14:52:19.121Z,22.18
2023-02-21T14:55:24.349Z,21.13
2023-02-21T14:58:06.515Z,20.24
2023-02-21T15:00:56.887Z,19.60
2023-02-21T15:03:29.552Z,19.15
2023-02-21T15:05:56.012Z,18.83
2023-02-21T15:08:25.600Z,18.40
2023-02-21T15:11:03.362Z,18.17
2023-02-21T15:13:35.858Z,18.00
2023-02-21T15:16:08.586Z,18.06
2023-02-21T15:18:40.614Z,17.88
2023-02-21T15:21:20.577Z,17.60
2023-02-21T15:24:13.208Z,17.45
2023-02-21T15:26:40.296Z,17.20
2023-02-21T15:29:15.862Z,16.82
2023-02-21T15:31:55.549Z,16.55
2023-02-21T15:34:30.794Z,16.26
2023-02-21T15:37:04.635Z,15.83
2023-02-21T15:39:34.870Z,15.45
2023-02-21T15:42:05.357Z,15.23
2023-02-21T15:44:46.792Z,14.93
2023-02-21T15:47:19.668Z,14.69
2023-02-21T15:49:52.154Z,14.42
2023-02-21T15:52:51.698Z,14.24
2023-02-21T15:55:18.495Z,14.03
2023-02-21T15:58:13.123Z,13.95
2023-02-21T16:00:42.979Z,13.91
2023-02-21T16:03:39.419Z,13.98
2023-02-21T16:06:19.588Z,13.93
2023-02-21T16:09:19.549Z,13.92
2023-02-21T16:11:54.481Z,13.97
2023-02-21T16:14:39.788Z,14.10
2023-02-21T16:17:06.630Z,14.13
2023-02-21T16:19:34.192Z,14.11
2023-02-21T16:22:47.495Z,14.23
2023-02-21T16:25:24.825Z,14.52
2023-02-21T16:27:57.769Z,14.57
2023-02-21T16:30:35.541Z,14.64
2023-02-21T16:33:05.088Z,14.66
2023-02-21T16:35:33.071Z,14.62
2023-02-21T16:38:00.991Z,14.58
2023-02-21T16:40:31.412Z,14.44
2023-02-21T16:42:59.123Z,14.33
2023-02-21T16:45:25.875Z,14.23
2023-02-21T16:48:05.808Z,14.14
2023-02-21T16:50:40.238Z,13.97
2023-02-21T16:53:12.783Z,13.87
2023-02-21T16:55:39.955Z,13.81
2023-02-21T16:58:26.661Z,13.75
2023-02-21T17:00:56.101Z,13.68
2023-02-21T17:03:23.497Z,13.58
2023-02-21T17:05:52.827Z,13.43
2023-02-21T17:08:19.859Z,13.35
2023-02-21T17:10:46.762Z,13.26
2023-02-21T17:13:13.531Z,13.15
2023-02-21T17:15:40.216Z,13.04
2023-02-21T17:18:07.010Z,12.94
2023-02-21T17:20:33.882Z,12.82
2023-02-21T17:23:01.855Z,12.78
2023-02-21T17:25:29.269Z,12.73
2023-02-21T17:27:56.592Z,12.68
2023-02-21T17:30:24.747Z,12.63
2023-02-21T17:32:52.631Z,12.61
2023-02-21T17:35:22.646Z,12.60
2023-02-21T17:37:52.282Z,12.55
2023-02-21T17:40:21.112Z,12.51
2023-02-21T17:42:48.204Z,12.50
2023-02-21T17:45:19.755Z,12.45
2023-02-21T17:47:47.942Z,12.40
2023-02-21T17:50:15.032Z,12.36
2023-02-21T17:52:42.412Z,12.35
2023-02-21T17:55:12.090Z,12.33
2023-02-21T17:57:40.739Z,12.28
2023-02-21T18:00:17.615Z,12.25
2023-02-21T18:02:44.304Z,12.25
2023-02-21T18:05:11.031Z,12.24
2023-02-21T18:07:37.876Z,12.24
2023-02-21T18:10:05.674Z,12.22
2023-02-21T18:12:35.851Z,12.23
2023-02-21T18:15:02.890Z,12.22
2023-02-21T18:17:29.680Z,12.21
2023-02-21T18:19:56.372Z,12.23
2023-02-21T18:22:23.341Z,12.27
2023-02-21T18:24:50.157Z,12.29
2023-02-21T18:27:16.928Z,12.31
2023-02-21T18:29:43.711Z,12.31
2023-02-21T18:32:10.562Z,12.31
2023-02-21T18:34:38.015Z,12.33
2023-02-21T18:37:04.795Z,12.27
2023-02-21T18:39:33.042Z,12.25
2023-02-21T18:41:59.661Z,12.21
2023-02-21T18:44:26.645Z,12.20
2023-02-21T18:46:55.625Z,12.18
2023-02-21T18:49:23.518Z,12.17
2023-02-21T18:51:50.708Z,12.19
2023-02-21T18:54:18.758Z,12.17
2023-02-21T18:56:49.101Z,12.19
2023-02-21T18:59:22.407Z,12.19
2023-02-21T19:01:53.809Z,12.17
2023-02-21T19:04:21.665Z,12.11
2023-02-21T19:06:48.466Z,12.07
2023-02-21T19:09:15.289Z,12.06
2023-02-21T19:11:42.938Z,12.02
2023-02-21T19:14:10.131Z,12.00
2023-02-21T19:16:37.063Z,11.93
2023-02-21T19:19:04.404Z,11.89
2023-02-21T19:22:31.091Z,11.85
2023-02-21T19:24:57.844Z,11.84
2023-02-21T19:27:24.927Z,11.79
2023-02-21T19:29:52.091Z,11.79
2023-02-21T19:33:18.529Z,11.78
2023-02-21T19:35:46.117Z,11.82
2023-02-21T19:38:12.918Z,11.82
2023-02-21T19:40:40.885Z,11.81
2023-02-21T19:43:07.891Z,11.77
2023-02-21T19:45:35.273Z,11.75
2023-02-21T19:48:01.957Z,11.75
2023-02-21T19:50:31.158Z,11.76
2023-02-21T19:52:58.959Z,11.73
2023-02-21T19:55:27.462Z,11.70
2023-02-21T19:57:54.177Z,11.68
2023-02-21T20:00:22.327Z,11.71
2023-02-21T20:02:49.350Z,11.71
2023-02-21T20:05:17.644Z,11.69
2023-02-21T20:07:45.668Z,11.67
2023-02-21T20:10:13.300Z,11.62
2023-02-21T20:12:43.143Z,11.63
2023-02-21T20:15:11.312Z,11.61
2023-02-21T20:17:38.365Z,11.60
2023-02-21T20:20:11.809Z,11.57
2023-02-21T20:22:39.304Z,11.59
2023-02-21T20:25:07.085Z,11.58
2023-02-21T20:27:34.720Z,11.57
2023-02-21T20:30:01.833Z,11.56
2023-02-21T20:32:28.568Z,11.56
2023-02-21T20:34:56.938Z,11.56
2023-02-21T20:37:24.679Z,11.54
2023-02-21T20:39:51.800Z,11.51
2023-02-21T20:42:21.741Z,11.43
2023-02-21T20:44:48.616Z,11.32
2023-02-21T20:47:15.432Z,11.26
2023-02-21T20:49:46.102Z,11.16
2023-02-21T20:52:14.004Z,11.12
2023-02-21T20:54:40.834Z,11.07
2023-02-21T20:57:10.091Z,10.98
2023-02-21T20:59:39.379Z,10.93
2023-02-21T21:02:08.106Z,10.88
2023-02-21T21:04:37.511Z,10.85
2023-02-21T21:07:19.960Z,10.85
2023-02-21T21:09:47.847Z,10.83
2023-02-21T21:12:17.493Z,10.84
2023-02-21T21:14:46.345Z,10.78
2023-02-21T21:17:16.813Z,10.77
2023-02-21T21:19:46.578Z,10.78
2023-02-21T21:22:19.813Z,10.78
2023-02-21T21:24:47.054Z,10.83
2023-02-21T21:27:15.510Z,10.87
2023-02-21T21:29:45.082Z,10.91
2023-02-21T21:32:18.321Z,10.94
2023-02-21T21:34:51.144Z,10.94
2023-02-21T21:37:19.338Z,10.98
2023-02-21T21:39:49.445Z,11.01
2023-02-21T21:42:17.742Z,11.04
2023-02-21T21:44:46.936Z,11.04
2023-02-21T21:47:15.637Z,10.96
2023-02-21T21:49:42.688Z,10.86
2023-02-21T21:52:10.419Z,10.78
2023-02-21T21:54:37.814Z,10.70
2023-02-21T21:57:05.697Z,10.62
2023-02-21T21:59:32.776Z,10.57
2023-02-21T22:01:59.857Z,10.52
2023-02-21T22:04:27.611Z,10.47
2023-02-21T22:06:56.717Z,10.46
2023-02-21T22:09:27.843Z,10.46
2023-02-21T22:11:54.881Z,10.44
2023-02-21T22:14:22.904Z,10.42
2023-02-21T22:16:51.646Z,10.41
2023-02-21T22:19:21.033Z,10.39
2023-02-21T22:21:48.901Z,10.36
2023-02-21T22:24:19.573Z,10.30
2023-02-21T22:26:47.198Z,10.31
2023-02-21T22:29:16.305Z,10.32
2023-02-21T22:31:44.254Z,10.30
2023-02-21T22:34:23.468Z,10.29
2023-02-21T22:36:57.765Z,10.26
2023-02-21T22:39:26.347Z,10.24
2023-02-21T22:41:53.873Z,10.22
2023-02-21T22:44:20.829Z,10.20
2023-02-21T22:46:58.836Z,10.13
2023-02-21T22:49:29.024Z,10.09
2023-02-21T22:51:57.798Z,10.05
2023-02-21T22:54:25.404Z,10.01
2023-02-21T22:56:52.165Z,9.98
2023-02-21T22:59:20.768Z,9.94
2023-02-21T23:01:48.028Z,9.89
2023-02-21T23:04:25.940Z,9.86
2023-02-21T23:06:59.320Z,9.84
2023-02-21T23:09:28.047Z,9.83
2023-02-21T23:11:58.469Z,9.82
2023-02-21T23:14:26.388Z,9.76
2023-02-21T23:16:57.401Z,9.72
2023-02-21T23:19:25.631Z,9.68
2023-02-21T23:21:53.559Z,9.68
2023-02-21T23:24:22.162Z,9.66
2023-02-21T23:26:50.310Z,9.65
2023-02-21T23:29:20.827Z,9.64
2023-02-21T23:31:48.305Z,9.62
2023-02-21T23:34:15.053Z,9.61
2023-02-21T23:36:41.869Z,9.59
2023-02-21T23:39:09.875Z,9.61
2023-02-21T23:41:41.212Z,9.57
2023-02-21T23:44:13.643Z,9.55
2023-02-21T23:46:43.073Z,9.50
2023-02-21T23:49:11.424Z,9.49
2023-02-21T23:51:38.990Z,9.47
2023-02-21T23:54:07.313Z,9.48
2023-02-21T23:56:35.714Z,9.47
2023-02-21T23:59:06.388Z,9.46
